Time;durP1;ratioP1;P1;durP2;ratioP2;P2;SDS_P1;SDS_P2;PMS_P1;PMS_P2;Temp;Humidity;BMP_temperature;BMP_pressure;BME280_temperature;BME280_humidity;BME280_pressure;Samples;Min_cycle;Max_cycle;Signal;HPM_P1;HPM_P2
2024/03/17 00:01:31;;;;;;;51.65;9.88;;;;;;;;;;5115090;28;20099;-67
2024/03/17 00:03:57;;;;;;;62.03;10.88;;;;;;;;;;5115567;28;20381;-69
2024/03/17 00:06:22;;;;;;;48.78;10.55;;;;;;;;;;5112921;28;20031;-67
2024/03/17 00:08:47;;;;;;;42.28;9.65;;;;;;;;;;5114147;28;20834;-67
2024/03/17 00:11:13;;;;;;;44.60;10.18;;;;;;;;;;5115170;28;20062;-66
2024/03/17 00:13:38;;;;;;;49.25;10.20;;;;;;;;;;5109947;27;20023;-66
2024/03/17 00:16:04;;;;;;;58.85;10.75;;;;;;;;;;5094327;28;20028;-66
2024/03/17 00:18:30;;;;;;;46.83;10.68;;;;;;;;;;5094303;28;20466;-65
2024/03/17 00:20:55;;;;;;;38.22;9.68;;;;;;;;;;5094723;28;20016;-66
2024/03/17 00:23:22;;;;;;;40.25;10.98;;;;;;;;;;5094330;28;20435;-65
2024/03/17 00:25:47;;;;;;;49.92;10.23;;;;;;;;;;5094191;28;20099;-64
2024/03/17 00:28:12;;;;;;;58.58;11.32;;;;;;;;;;5096616;28;20599;-66
2024/03/17 00:30:38;;;;;;;50.85;13.63;;;;;;;;;;5114589;28;20475;-65
2024/03/17 00:33:03;;;;;;;43.97;10.70;;;;;;;;;;5113690;28;20020;-66
2024/03/17 00:35:30;;;;;;;46.88;11.60;;;;;;;;;;5114862;28;20077;-66
2024/03/17 00:37:55;;;;;;;51.88;11.05;;;;;;;;;;5114813;27;20031;-66
2024/03/17 00:40:21;;;;;;;61.20;10.95;;;;;;;;;;5114523;28;20023;-65
2024/03/17 00:42:47;;;;;;;50.13;10.85;;;;;;;;;;5111780;28;20105;-67
2024/03/17 00:45:12;;;;;;;45.03;11.70;;;;;;;;;;5107262;28;20039;-67
2024/03/17 00:47:38;;;;;;;49.38;11.80;;;;;;;;;;5090706;28;20020;-67
2024/03/17 00:50:06;;;;;;;63.72;12.50;;;;;;;;;;5093467;28;20396;-66
2024/03/17 00:52:31;;;;;;;45.55;10.98;;;;;;;;;;5092737;28;20040;-65
2024/03/17 00:54:57;;;;;;;43.85;10.35;;;;;;;;;;5093471;28;20034;-68
2024/03/17 00:57:23;;;;;;;43.13;10.52;;;;;;;;;;5094939;28;20024;-66
2024/03/17 00:59:48;;;;;;;51.55;12.02;;;;;;;;;;5093858;28;20027;-66
2024/03/17 01:02:18;;;;;;;46.17;9.98;;;;;;;;;;5093047;28;20020;-66
2024/03/17 01:04:43;;;;;;;45.08;11.25;;;;;;;;;;5093311;28;20019;-69
2024/03/17 01:07:09;;;;;;;38.20;11.45;;;;;;;;;;5093512;28;20032;-68
2024/03/17 01:09:35;;;;;;;57.05;12.00;;;;;;;;;;5092512;28;20434;-68
2024/03/17 01:12:00;;;;;;;43.97;11.27;;;;;;;;;;5093285;28;20086;-68
2024/03/17 01:14:27;;;;;;;41.83;11.40;;;;;;;;;;5093171;28;20016;-66
2024/03/17 01:16:52;;;;;;;54.75;12.43;;;;;;;;;;5093371;28;20028;-65
2024/03/17 01:19:18;;;;;;;41.88;11.40;;;;;;;;;;5094180;28;20023;-66
2024/03/17 01:21:43;;;;;;;60.78;13.35;;;;;;;;;;5093060;28;20342;-66
2024/03/17 01:24:08;;;;;;;52.42;11.82;;;;;;;;;;5093041;28;20032;-68
2024/03/17 01:26:34;;;;;;;40.17;11.18;;;;;;;;;;5093063;28;20024;-67
2024/03/17 01:28:59;;;;;;;54.90;11.38;;;;;;;;;;5093181;28;20308;-67
2024/03/17 01:31:25;;;;;;;50.30;11.65;;;;;;;;;;5093048;28;20024;-68
2024/03/17 01:33:50;;;;;;;50.75;11.82;;;;;;;;;;5093852;28;20512;-66
2024/03/17 01:36:16;;;;;;;45.60;12.77;;;;;;;;;;5092163;28;20024;-68
2024/03/17 01:38:41;;;;;;;62.90;13.27;;;;;;;;;;5092973;28;20030;-68
2024/03/17 01:41:07;;;;;;;50.47;12.45;;;;;;;;;;5092810;28;20016;-69
2024/03/17 01:43:32;;;;;;;46.08;11.90;;;;;;;;;;5103550;28;20028;-67
2024/03/17 01:45:58;;;;;;;52.38;11.95;;;;;;;;;;5112949;28;20106;-67
2024/03/17 01:48:24;;;;;;;53.55;12.65;;;;;;;;;;5094981;28;20191;-66
2024/03/17 01:50:51;;;;;;;45.35;10.93;;;;;;;;;;5113260;28;20350;-67
2024/03/17 01:53:17;;;;;;;55.22;11.73;;;;;;;;;;5112863;28;20482;-67
2024/03/17 01:55:43;;;;;;;52.38;11.40;;;;;;;;;;5112789;28;20035;-68
2024/03/17 01:58:10;;;;;;;48.45;11.15;;;;;;;;;;5109393;28;20314;-68
2024/03/17 02:00:36;;;;;;;56.15;11.90;;;;;;;;;;5112569;28;20023;-68
2024/03/17 02:03:06;;;;;;;43.03;11.90;;;;;;;;;;5113292;28;20518;-66
2024/03/17 02:05:31;;;;;;;58.90;12.30;;;;;;;;;;5113265;28;20085;-66
2024/03/17 02:07:57;;;;;;;56.92;11.60;;;;;;;;;;5112958;28;20566;-66
2024/03/17 02:10:22;;;;;;;51.75;12.32;;;;;;;;;;5112798;28;20016;-67
2024/03/17 02:12:48;;;;;;;50.83;12.75;;;;;;;;;;5112423;28;20030;-66
2024/03/17 02:15:14;;;;;;;45.13;13.00;;;;;;;;;;5113003;28;20024;-67
2024/03/17 02:17:39;;;;;;;49.45;12.65;;;;;;;;;;5112758;28;20434;-66
2024/03/17 02:20:07;;;;;;;51.28;12.20;;;;;;;;;;5113051;28;20395;-67
2024/03/17 02:22:36;;;;;;;43.05;12.35;;;;;;;;;;5104667;28;20097;-65
2024/03/17 02:25:02;;;;;;;51.15;13.15;;;;;;;;;;5092844;28;20323;-66
2024/03/17 02:27:30;;;;;;;45.65;13.15;;;;;;;;;;5092053;28;20075;-68
2024/03/17 02:29:55;;;;;;;47.80;12.90;;;;;;;;;;5092242;28;20123;-67
2024/03/17 02:32:22;;;;;;;60.22;13.68;;;;;;;;;;5092486;28;20515;-67
2024/03/17 02:34:48;;;;;;;53.72;13.85;;;;;;;;;;5092529;28;20032;-67
2024/03/17 02:37:13;;;;;;;55.20;13.95;;;;;;;;;;5092110;28;20023;-66
2024/03/17 02:39:39;;;;;;;51.00;14.13;;;;;;;;;;5092159;28;20067;-65
2024/03/17 02:42:05;;;;;;;52.03;13.93;;;;;;;;;;5092339;28;20030;-67
2024/03/17 02:44:30;;;;;;;44.88;12.45;;;;;;;;;;5092472;28;20495;-66
2024/03/17 02:46:57;;;;;;;46.65;13.45;;;;;;;;;;5091972;28;20016;-67
2024/03/17 02:49:23;;;;;;;57.92;13.60;;;;;;;;;;5093002;28;20036;-66
2024/03/17 02:51:49;;;;;;;47.00;12.98;;;;;;;;;;5091916;28;20043;-66
2024/03/17 02:54:14;;;;;;;53.10;12.70;;;;;;;;;;5092358;28;20465;-67
2024/03/17 02:56:41;;;;;;;44.75;13.60;;;;;;;;;;5092295;28;20028;-67
2024/03/17 02:59:07;;;;;;;50.70;13.05;;;;;;;;;;5091966;28;20039;-68
2024/03/17 03:01:32;;;;;;;47.75;13.68;;;;;;;;;;5092346;28;20358;-66
2024/03/17 03:03:58;;;;;;;56.25;16.58;;;;;;;;;;5093348;28;20024;-66
2024/03/17 03:06:24;;;;;;;49.85;17.77;;;;;;;;;;5092030;28;20097;-67
2024/03/17 03:08:50;;;;;;;49.20;14.48;;;;;;;;;;5091673;28;20094;-65
2024/03/17 03:11:16;;;;;;;44.22;14.30;;;;;;;;;;5094757;28;20442;-68
2024/03/17 03:13:42;;;;;;;44.92;15.88;;;;;;;;;;5095663;28;20084;-67
2024/03/17 03:16:12;;;;;;;50.92;14.15;;;;;;;;;;5096563;28;20024;-69
2024/03/17 03:18:38;;;;;;;42.58;14.93;;;;;;;;;;5095515;28;20016;-69
2024/03/17 03:21:04;;;;;;;56.53;14.65;;;;;;;;;;5095295;28;20027;-68
2024/03/17 03:23:30;;;;;;;53.80;14.82;;;;;;;;;;5095310;28;20036;-67
2024/03/17 03:25:56;;;;;;;52.83;14.48;;;;;;;;;;5095204;28;20052;-67
2024/03/17 03:28:22;;;;;;;52.38;16.13;;;;;;;;;;5095019;28;20311;-66
2024/03/17 03:30:48;;;;;;;41.92;14.85;;;;;;;;;;5096352;28;20019;-66
2024/03/17 03:33:13;;;;;;;45.15;15.07;;;;;;;;;;5095130;28;20035;-69
2024/03/17 03:35:39;;;;;;;45.63;14.93;;;;;;;;;;5096102;28;20024;-68
2024/03/17 03:38:05;;;;;;;56.17;15.43;;;;;;;;;;5095361;28;20098;-67
2024/03/17 03:40:30;;;;;;;43.70;14.65;;;;;;;;;;5106748;28;20055;-65
2024/03/17 03:42:57;;;;;;;51.80;16.00;;;;;;;;;;5115267;27;20055;-65
2024/03/17 03:45:22;;;;;;;49.60;16.40;;;;;;;;;;5115300;28;20386;-67
2024/03/17 03:47:49;;;;;;;49.03;15.45;;;;;;;;;;5115033;28;20118;-66
2024/03/17 03:50:15;;;;;;;46.75;16.75;;;;;;;;;;5115091;28;20074;-68
2024/03/17 03:52:41;;;;;;;54.22;17.42;;;;;;;;;;5115290;28;20083;-63
2024/03/17 03:55:10;;;;;;;40.95;16.42;;;;;;;;;;5113657;28;20450;-66
2024/03/17 03:57:38;;;;;;;47.42;15.18;;;;;;;;;;5114983;28;20031;-67
2024/03/17 04:00:12;;;;;;;48.60;15.57;;;;;;;;;;5115170;28;20054;-68
2024/03/17 04:02:41;;;;;;;47.22;16.00;;;;;;;;;;5115500;28;20388;-67
2024/03/17 04:05:06;;;;;;;47.33;15.00;;;;;;;;;;5099298;28;20043;-67
2024/03/17 04:07:32;;;;;;;54.92;15.15;;;;;;;;;;5094437;28;20359;-67
2024/03/17 04:09:57;;;;;;;49.50;15.88;;;;;;;;;;5094719;28;20459;-68
2024/03/17 04:12:27;;;;;;;46.97;15.88;;;;;;;;;;5094324;28;20027;-69
2024/03/17 04:14:53;;;;;;;41.60;14.27;;;;;;;;;;5094415;28;20020;-67
2024/03/17 04:17:21;;;;;;;60.47;15.07;;;;;;;;;;5094463;28;20043;-67
2024/03/17 04:19:48;;;;;;;51.95;16.05;;;;;;;;;;5095033;28;20015;-68
2024/03/17 04:22:13;;;;;;;45.83;15.45;;;;;;;;;;5094857;28;20446;-64
2024/03/17 04:24:38;;;;;;;45.50;15.32;;;;;;;;;;5093661;28;20102;-68
2024/03/17 04:27:04;;;;;;;49.22;16.67;;;;;;;;;;5097052;28;20031;-66
2024/03/17 04:29:29;;;;;;;42.88;15.18;;;;;;;;;;5115043;28;20035;-66
2024/03/17 04:31:55;;;;;;;52.10;15.43;;;;;;;;;;5114739;28;20023;-67
2024/03/17 04:34:20;;;;;;;47.97;16.58;;;;;;;;;;5114256;28;20023;-66
2024/03/17 04:36:46;;;;;;;45.95;16.02;;;;;;;;;;5114348;28;20011;-66
2024/03/17 04:39:12;;;;;;;55.13;16.75;;;;;;;;;;5111159;28;20018;-67
2024/03/17 04:41:39;;;;;;;53.33;19.27;;;;;;;;;;5114377;28;20051;-67
2024/03/17 04:44:06;;;;;;;49.65;20.27;;;;;;;;;;5114030;28;20028;-67
2024/03/17 04:46:32;;;;;;;49.40;18.88;;;;;;;;;;5112375;28;20012;-68
2024/03/17 04:48:57;;;;;;;52.35;19.95;;;;;;;;;;5113048;28;20046;-68
2024/03/17 04:51:23;;;;;;;50.65;18.40;;;;;;;;;;5112383;28;20019;-68
2024/03/17 04:53:48;;;;;;;54.90;17.60;;;;;;;;;;5113877;28;20457;-69
2024/03/17 04:56:14;;;;;;;48.40;15.98;;;;;;;;;;5114079;28;20422;-69
2024/03/17 04:58:39;;;;;;;58.15;15.57;;;;;;;;;;5114221;28;20088;-68
2024/03/17 05:01:07;;;;;;;49.13;14.10;;;;;;;;;;5113971;28;20028;-68
2024/03/17 05:03:33;;;;;;;47.22;15.73;;;;;;;;;;5113636;28;20413;-68
2024/03/17 05:06:02;;;;;;;38.10;14.13;;;;;;;;;;5111919;28;20016;-68
2024/03/17 05:08:29;;;;;;;47.67;14.93;;;;;;;;;;5113795;28;20492;-68
2024/03/17 05:10:58;;;;;;;43.08;13.18;;;;;;;;;;5111897;28;20031;-68
2024/03/17 05:13:24;;;;;;;44.47;14.18;;;;;;;;;;5113527;28;20116;-70
2024/03/17 05:15:49;;;;;;;48.67;13.95;;;;;;;;;;5104974;27;20036;-69
2024/03/17 05:18:14;;;;;;;53.08;14.07;;;;;;;;;;5093421;28;20445;-68
2024/03/17 05:20:40;;;;;;;51.80;14.43;;;;;;;;;;5092952;28;20377;-68
2024/03/17 05:23:05;;;;;;;40.55;14.95;;;;;;;;;;5091915;28;20174;-67
2024/03/17 05:25:36;;;;;;;55.97;14.93;;;;;;;;;;5092918;28;20020;-68
2024/03/17 05:28:01;;;;;;;47.15;14.00;;;;;;;;;;5093026;28;20428;-68
2024/03/17 05:30:27;;;;;;;51.65;13.68;;;;;;;;;;5093873;28;20024;-67
2024/03/17 05:32:52;;;;;;;48.22;12.60;;;;;;;;;;5092332;28;20028;-66
2024/03/17 05:35:18;;;;;;;51.83;14.20;;;;;;;;;;5092923;28;20118;-65
2024/03/17 05:37:43;;;;;;;44.85;15.20;;;;;;;;;;5093003;28;20031;-68
2024/03/17 05:40:12;;;;;;;50.40;14.15;;;;;;;;;;5093235;28;20016;-67
2024/03/17 05:42:37;;;;;;;53.40;14.80;;;;;;;;;;5093674;28;20751;-68
2024/03/17 05:45:03;;;;;;;47.38;14.55;;;;;;;;;;5091586;28;20088;-68
2024/03/17 05:47:29;;;;;;;38.63;15.25;;;;;;;;;;5092790;28;20103;-63
2024/03/17 05:49:55;;;;;;;46.88;15.55;;;;;;;;;;5092638;28;20161;-62
2024/03/17 05:52:21;;;;;;;40.92;15.70;;;;;;;;;;5092392;28;20390;-64
2024/03/17 05:54:47;;;;;;;47.13;15.07;;;;;;;;;;5092673;28;20032;-63
2024/03/17 05:57:13;;;;;;;49.05;15.73;;;;;;;;;;5092930;28;20020;-66
2024/03/17 05:59:39;;;;;;;40.58;15.55;;;;;;;;;;5092482;28;20043;-67
2024/03/17 06:02:04;;;;;;;47.85;14.82;;;;;;;;;;5097031;28;20024;-66
2024/03/17 06:04:30;;;;;;;51.92;15.85;;;;;;;;;;5111240;28;20024;-71
2024/03/17 06:06:55;;;;;;;44.22;14.93;;;;;;;;;;5113007;28;20024;-70
2024/03/17 06:09:21;;;;;;;51.63;16.70;;;;;;;;;;5112679;28;20119;-71
2024/03/17 06:11:46;;;;;;;51.63;16.17;;;;;;;;;;5112777;28;20048;-71
2024/03/17 06:14:12;;;;;;;42.75;15.80;;;;;;;;;;5112065;28;20415;-72
2024/03/17 06:16:38;;;;;;;54.50;15.88;;;;;;;;;;5112841;28;20032;-70
2024/03/17 06:19:03;;;;;;;49.92;16.00;;;;;;;;;;5112173;28;20024;-67
2024/03/17 06:21:29;;;;;;;45.30;16.75;;;;;;;;;;5112917;28;20020;-70
2024/03/17 06:23:54;;;;;;;48.08;17.02;;;;;;;;;;5106109;28;20042;-55
2024/03/17 06:26:20;;;;;;;53.83;17.63;;;;;;;;;;5092952;28;20024;-62
2024/03/17 06:28:46;;;;;;;53.17;17.20;;;;;;;;;;5092481;28;20060;-65
2024/03/17 06:31:11;;;;;;;43.28;17.65;;;;;;;;;;5092050;28;20016;-65
2024/03/17 06:33:37;;;;;;;61.38;18.17;;;;;;;;;;5091451;28;20077;-65
2024/03/17 06:36:06;;;;;;;45.35;18.02;;;;;;;;;;5091498;28;20062;-64
2024/03/17 06:38:31;;;;;;;53.35;17.60;;;;;;;;;;5097515;28;20019;-64
2024/03/17 06:40:57;;;;;;;56.58;17.77;;;;;;;;;;5112469;28;20023;-65
2024/03/17 06:43:22;;;;;;;50.13;17.77;;;;;;;;;;5112921;28;20023;-66
2024/03/17 06:45:57;;;;;;;46.80;18.25;;;;;;;;;;5115941;28;20491;-65
2024/03/17 06:48:23;;;;;;;39.03;17.35;;;;;;;;;;5116155;28;20035;-66
2024/03/17 06:50:49;;;;;;;64.55;18.35;;;;;;;;;;5116447;28;20035;-65
2024/03/17 06:53:14;;;;;;;57.58;18.55;;;;;;;;;;5114606;28;20122;-65
2024/03/17 06:55:40;;;;;;;52.95;18.30;;;;;;;;;;5115517;28;20034;-64
2024/03/17 06:58:06;;;;;;;50.25;18.70;;;;;;;;;;5114303;28;20104;-65
2024/03/17 07:00:32;;;;;;;56.00;18.13;;;;;;;;;;5116179;28;20024;-64
2024/03/17 07:02:57;;;;;;;50.72;17.55;;;;;;;;;;5101783;28;20028;-64
2024/03/17 07:05:22;;;;;;;61.10;18.85;;;;;;;;;;5095673;28;20363;-63
2024/03/17 07:07:48;;;;;;;56.38;17.40;;;;;;;;;;5095515;28;20050;-64
2024/03/17 07:10:13;;;;;;;52.70;18.13;;;;;;;;;;5095397;28;20437;-64
2024/03/17 07:12:39;;;;;;;59.85;18.17;;;;;;;;;;5095191;28;20028;-64
2024/03/17 07:15:05;;;;;;;55.88;17.75;;;;;;;;;;5095250;28;20415;-64
2024/03/17 07:17:31;;;;;;;59.05;17.73;;;;;;;;;;5095315;28;20099;-65
2024/03/17 07:19:56;;;;;;;60.70;18.33;;;;;;;;;;5096198;28;20099;-63
2024/03/17 07:22:22;;;;;;;56.63;18.42;;;;;;;;;;5095693;28;20028;-65
2024/03/17 07:24:49;;;;;;;49.42;19.23;;;;;;;;;;5095270;28;20023;-65
2024/03/17 07:27:15;;;;;;;61.33;18.95;;;;;;;;;;5095145;28;20031;-65
2024/03/17 07:29:40;;;;;;;64.38;20.70;;;;;;;;;;5095319;28;20032;-57
2024/03/17 07:32:06;;;;;;;60.03;19.60;;;;;;;;;;5095012;28;20020;-63
2024/03/17 07:34:32;;;;;;;55.33;19.80;;;;;;;;;;5096250;28;20027;-66
2024/03/17 07:37:00;;;;;;;68.72;20.23;;;;;;;;;;5094452;28;20077;-65
2024/03/17 07:39:32;;;;;;;52.20;20.00;;;;;;;;;;5108044;28;20517;-64
2024/03/17 07:41:57;;;;;;;63.97;20.00;;;;;;;;;;5113375;28;20310;-65
2024/03/17 07:44:23;;;;;;;65.40;20.38;;;;;;;;;;5115846;28;20035;-65
2024/03/17 07:46:48;;;;;;;74.80;20.65;;;;;;;;;;5115036;28;20016;-66
2024/03/17 07:49:15;;;;;;;76.50;21.02;;;;;;;;;;5114987;28;20035;-65
2024/03/17 07:51:41;;;;;;;65.30;19.90;;;;;;;;;;5115014;28;20020;-65
2024/03/17 07:54:07;;;;;;;65.10;19.75;;;;;;;;;;5113246;28;20023;-65
2024/03/17 07:56:32;;;;;;;64.22;20.50;;;;;;;;;;5114316;28;20151;-65
2024/03/17 07:58:57;;;;;;;65.63;19.75;;;;;;;;;;5115161;28;20084;-63
2024/03/17 08:01:23;;;;;;;77.32;20.60;;;;;;;;;;5102681;28;20031;-61
2024/03/17 08:03:53;;;;;;;75.93;20.30;;;;;;;;;;5094518;28;20024;-64
2024/03/17 08:06:18;;;;;;;72.47;20.45;;;;;;;;;;5094491;28;20047;-64
2024/03/17 08:08:44;;;;;;;68.35;21.38;;;;;;;;;;5094351;28;20075;-63
2024/03/17 08:11:09;;;;;;;63.00;20.98;;;;;;;;;;5094798;28;20065;-65
2024/03/17 08:13:35;;;;;;;65.72;21.48;;;;;;;;;;5093187;28;20028;-66
2024/03/17 08:16:02;;;;;;;60.08;21.60;;;;;;;;;;5094244;28;20020;-64
2024/03/17 08:18:28;;;;;;;70.50;23.33;;;;;;;;;;5094117;28;20024;-64
2024/03/17 08:20:56;;;;;;;55.45;22.08;;;;;;;;;;5094894;28;20012;-65
2024/03/17 08:23:22;;;;;;;69.72;22.15;;;;;;;;;;5095198;28;20027;-63
2024/03/17 08:25:54;;;;;;;69.28;21.50;;;;;;;;;;5094115;28;20115;-72
2024/03/17 08:28:20;;;;;;;69.28;20.70;;;;;;;;;;5094218;28;20059;-69
2024/03/17 08:30:53;;;;;;;65.72;20.90;;;;;;;;;;5093470;28;20016;-70
2024/03/17 08:33:18;;;;;;;69.00;21.33;;;;;;;;;;5093762;28;20102;-69
2024/03/17 08:35:52;;;;;;;64.05;20.90;;;;;;;;;;5092721;28;20070;-68
2024/03/17 08:38:20;;;;;;;70.13;21.77;;;;;;;;;;5095275;28;20717;-75
2024/03/17 08:40:46;;;;;;;60.95;21.05;;;;;;;;;;5087254;28;20026;-62
2024/03/17 08:43:11;;;;;;;73.75;20.10;;;;;;;;;;5113038;28;20046;-64
2024/03/17 08:45:36;;;;;;;57.97;19.95;;;;;;;;;;5112207;28;20012;-61
2024/03/17 08:48:02;;;;;;;69.53;19.67;;;;;;;;;;5113010;28;20032;-64
2024/03/17 08:50:28;;;;;;;66.93;20.48;;;;;;;;;;5114479;28;20104;-63
2024/03/17 08:52:53;;;;;;;72.80;19.50;;;;;;;;;;5113051;28;20571;-64
2024/03/17 08:55:19;;;;;;;67.18;20.23;;;;;;;;;;5113595;28;20036;-63
2024/03/17 08:57:44;;;;;;;66.22;20.10;;;;;;;;;;5113819;28;20061;-65
2024/03/17 09:00:10;;;;;;;66.35;19.75;;;;;;;;;;5113364;28;20438;-64
2024/03/17 09:02:35;;;;;;;66.18;19.30;;;;;;;;;;5113607;28;20106;-64
2024/03/17 09:05:00;;;;;;;70.47;19.73;;;;;;;;;;5095442;28;20058;-65
2024/03/17 09:07:26;;;;;;;71.30;19.30;;;;;;;;;;5110196;28;20046;-65
2024/03/17 09:09:52;;;;;;;67.97;20.08;;;;;;;;;;5113709;28;20037;-63
2024/03/17 09:12:20;;;;;;;61.65;20.52;;;;;;;;;;5112628;28;20023;-65
2024/03/17 09:14:47;;;;;;;64.30;20.27;;;;;;;;;;5113458;28;20438;-66
2024/03/17 09:17:12;;;;;;;51.42;18.48;;;;;;;;;;5112253;28;20058;-66
2024/03/17 09:19:38;;;;;;;74.93;20.90;;;;;;;;;;5112484;28;20350;-65
2024/03/17 09:22:04;;;;;;;67.68;18.70;;;;;;;;;;5106854;28;20048;-64
2024/03/17 09:24:29;;;;;;;64.05;18.83;;;;;;;;;;5094094;28;20355;-64
2024/03/17 09:26:55;;;;;;;78.68;19.90;;;;;;;;;;5092617;28;20022;-64
2024/03/17 09:29:20;;;;;;;60.55;18.80;;;;;;;;;;5093510;28;20097;-64
2024/03/17 09:31:45;;;;;;;65.40;18.83;;;;;;;;;;5092755;28;20059;-65
2024/03/17 09:34:11;;;;;;;58.75;18.92;;;;;;;;;;5091715;28;20123;-65
2024/03/17 09:36:36;;;;;;;63.15;19.05;;;;;;;;;;5091731;28;20035;-64
2024/03/17 09:39:04;;;;;;;85.20;19.08;;;;;;;;;;5096585;28;20026;-66
2024/03/17 09:41:30;;;;;;;59.20;17.77;;;;;;;;;;5113002;28;20119;-65
2024/03/17 09:43:58;;;;;;;66.50;18.83;;;;;;;;;;5112887;28;20020;-65
2024/03/17 09:46:25;;;;;;;62.10;18.52;;;;;;;;;;5112075;28;20023;-64
2024/03/17 09:48:51;;;;;;;63.70;17.90;;;;;;;;;;5111253;28;20514;-65
2024/03/17 09:51:20;;;;;;;69.03;18.98;;;;;;;;;;5112889;28;20453;-65
2024/03/17 09:53:46;;;;;;;60.92;18.58;;;;;;;;;;5091283;28;20084;-64
2024/03/17 09:56:16;;;;;;;55.53;17.70;;;;;;;;;;5092723;28;20085;-64
2024/03/17 09:58:42;;;;;;;59.95;16.38;;;;;;;;;;5103605;28;20086;-64
2024/03/17 10:01:07;;;;;;;69.13;17.27;;;;;;;;;;5112782;28;20111;-64
2024/03/17 10:04:01;;;;;;;58.60;17.48;;;;;;;;;;5112930;28;20016;-66
2024/03/17 10:06:29;;;;;;;60.10;16.60;;;;;;;;;;5110350;28;20035;-63
2024/03/17 10:08:55;;;;;;;60.90;16.73;;;;;;;;;;5112579;28;20031;-62
2024/03/17 10:11:23;;;;;;;56.95;17.00;;;;;;;;;;5095820;28;20430;-63
2024/03/17 10:14:01;;;;;;;50.50;15.43;;;;;;;;;;5092466;28;20031;-63
2024/03/17 10:16:29;;;;;;;49.05;15.23;;;;;;;;;;5091734;28;20047;-62
2024/03/17 10:19:11;;;;;;;55.08;15.15;;;;;;;;;;5089987;28;20446;-63
2024/03/17 10:21:38;;;;;;;44.80;14.85;;;;;;;;;;5095301;28;20028;-59
2024/03/17 10:24:04;;;;;;;51.53;14.00;;;;;;;;;;5095698;28;20092;-62
2024/03/17 10:26:30;;;;;;;46.15;13.65;;;;;;;;;;5094784;28;20028;-67
2024/03/17 10:28:55;;;;;;;48.33;14.35;;;;;;;;;;5094911;28;20027;-62
2024/03/17 10:31:21;;;;;;;49.20;14.63;;;;;;;;;;5095615;28;20020;-62
2024/03/17 10:34:00;;;;;;;43.33;15.27;;;;;;;;;;5095613;28;20038;-62
2024/03/17 10:36:25;;;;;;;52.15;14.75;;;;;;;;;;5096841;28;20346;-60
2024/03/17 10:38:51;;;;;;;41.83;14.38;;;;;;;;;;5095336;28;20091;-63
2024/03/17 10:41:17;;;;;;;51.03;15.13;;;;;;;;;;5097637;28;20373;-63
2024/03/17 10:43:42;;;;;;;50.35;14.38;;;;;;;;;;5095471;28;20048;-66
2024/03/17 10:46:07;;;;;;;45.13;13.57;;;;;;;;;;5095572;28;20080;-68
2024/03/17 10:48:34;;;;;;;49.83;12.70;;;;;;;;;;5099159;28;20031;-64
2024/03/17 10:51:02;;;;;;;37.85;12.52;;;;;;;;;;5116236;28;20019;-65
2024/03/17 10:53:29;;;;;;;37.28;11.38;;;;;;;;;;5116328;28;20449;-66
2024/03/17 10:56:05;;;;;;;40.05;11.90;;;;;;;;;;5116250;28;20043;-64
2024/03/17 10:58:35;;;;;;;33.25;11.27;;;;;;;;;;5116433;28;20038;-64
2024/03/17 11:01:04;;;;;;;32.55;11.77;;;;;;;;;;5115312;28;20407;-64
2024/03/17 11:03:31;;;;;;;38.03;11.32;;;;;;;;;;5114169;28;20027;-65
2024/03/17 11:05:57;;;;;;;35.90;12.18;;;;;;;;;;5116001;28;20063;-64
2024/03/17 11:08:23;;;;;;;30.90;10.57;;;;;;;;;;5111682;28;20446;-65
2024/03/17 11:10:49;;;;;;;36.90;11.18;;;;;;;;;;5095460;28;20038;-64
2024/03/17 11:13:28;;;;;;;31.85;10.13;;;;;;;;;;5094690;28;20051;-64
2024/03/17 11:15:57;;;;;;;35.85;10.68;;;;;;;;;;5095627;28;20032;-63
2024/03/17 11:18:23;;;;;;;32.97;10.20;;;;;;;;;;5095521;28;20039;-64
2024/03/17 11:20:58;;;;;;;26.98;9.38;;;;;;;;;;5095414;28;20052;-64
2024/03/17 11:23:30;;;;;;;28.38;9.43;;;;;;;;;;5100342;28;20102;-65
2024/03/17 11:25:55;;;;;;;33.42;10.20;;;;;;;;;;5115813;28;20073;-64
2024/03/17 11:28:39;;;;;;;33.83;10.13;;;;;;;;;;5113603;28;20059;-64
2024/03/17 11:31:08;;;;;;;33.47;10.35;;;;;;;;;;5114660;28;20357;-66
2024/03/17 11:33:36;;;;;;;44.85;10.63;;;;;;;;;;5115961;28;20031;-65
2024/03/17 11:36:20;;;;;;;41.63;9.75;;;;;;;;;;5116007;28;20338;-64
2024/03/17 11:38:56;;;;;;;32.28;9.43;;;;;;;;;;5115475;28;20070;-66
2024/03/17 11:41:21;;;;;;;;;;;;;;;;;;5115962;28;20138;-65
2024/03/17 11:43:47;;;;;;;;;;;;;;;;;;5113362;28;19958;-64
2024/03/17 11:46:13;;;;;;;32.00;10.13;;;;;;;;;;5113395;28;20346;-63
2024/03/17 11:48:38;;;;;;;35.15;10.82;;;;;;;;;;5115006;28;20031;-64
2024/03/17 11:51:04;;;;;;;38.08;10.93;;;;;;;;;;5115886;28;20112;-65
2024/03/17 11:53:29;;;;;;;46.35;12.10;;;;;;;;;;5114972;28;20083;-64
2024/03/17 11:55:55;;;;;;;44.70;11.77;;;;;;;;;;5115240;28;20020;-66
2024/03/17 11:58:22;;;;;;;57.17;12.82;;;;;;;;;;5115055;28;20419;-63
2024/03/17 12:00:51;;;;;;;45.00;11.32;;;;;;;;;;5113555;28;20469;-64
2024/03/17 12:03:17;;;;;;;51.72;12.52;;;;;;;;;;5111594;28;20073;-64
2024/03/17 12:05:42;;;;;;;51.78;12.27;;;;;;;;;;5114774;28;20019;-65
2024/03/17 12:08:19;;;;;;;68.28;13.90;;;;;;;;;;5115128;28;20035;-65
2024/03/17 12:10:48;;;;;;;58.67;12.02;;;;;;;;;;5114244;28;20469;-64
2024/03/17 12:13:14;;;;;;;45.97;11.20;;;;;;;;;;5114982;28;20023;-64
2024/03/17 12:15:40;;;;;;;51.13;13.10;;;;;;;;;;5114597;28;20035;-65
2024/03/17 12:18:19;;;;;;;56.65;11.98;;;;;;;;;;5113168;28;20361;-64
2024/03/17 12:20:48;;;;;;;52.22;11.55;;;;;;;;;;5114731;28;20039;-64
2024/03/17 12:23:20;;;;;;;54.90;12.63;;;;;;;;;;5112799;28;20031;-64
2024/03/17 12:25:47;;;;;;;50.20;11.88;;;;;;;;;;5114217;28;20438;-64
2024/03/17 12:28:15;;;;;;;56.35;11.65;;;;;;;;;;5114497;28;20035;-64
2024/03/17 12:30:41;;;;;;;52.80;11.65;;;;;;;;;;5114852;28;20012;-64
2024/03/17 12:33:08;;;;;;;67.97;12.25;;;;;;;;;;5114918;28;20414;-64
2024/03/17 12:35:34;;;;;;;49.90;12.20;;;;;;;;;;5114323;28;20220;-64
2024/03/17 12:38:00;;;;;;;51.38;12.00;;;;;;;;;;5109548;28;20147;-64
2024/03/17 12:40:29;;;;;;;46.03;11.48;;;;;;;;;;5094035;28;20169;-65
2024/03/17 12:42:54;;;;;;;56.83;11.65;;;;;;;;;;5092816;28;20034;-64
2024/03/17 12:45:21;;;;;;;52.72;12.32;;;;;;;;;;5093477;28;20334;-65
2024/03/17 12:47:48;;;;;;;44.03;11.70;;;;;;;;;;5093380;28;20401;-64
2024/03/17 12:50:14;;;;;;;59.92;12.40;;;;;;;;;;5093740;28;20483;-65
2024/03/17 12:52:40;;;;;;;53.13;11.30;;;;;;;;;;5094518;28;20040;-65
2024/03/17 13:01:01;;;;;;;51.17;12.55;;;;;;;;;;5073247;28;20474;-66
2024/03/17 13:03:28;;;;;;;66.55;13.02;;;;;;;;;;5073408;28;20439;-64
2024/03/17 13:05:54;;;;;;;60.67;12.50;;;;;;;;;;5073183;28;20117;-64
2024/03/17 13:08:20;;;;;;;63.25;12.57;;;;;;;;;;5073117;28;20078;-64
2024/03/17 13:10:47;;;;;;;57.42;11.32;;;;;;;;;;5072953;28;20232;-65
2024/03/17 13:13:15;;;;;;;56.08;12.02;;;;;;;;;;5081859;28;20040;-64
2024/03/17 13:15:41;;;;;;;69.55;13.25;;;;;;;;;;5093851;28;20022;-64
2024/03/17 13:18:06;;;;;;;60.38;12.82;;;;;;;;;;5093183;28;20024;-64
2024/03/17 13:20:32;;;;;;;70.93;11.85;;;;;;;;;;5093996;28;20821;-64
2024/03/17 13:22:59;;;;;;;66.40;13.02;;;;;;;;;;5093251;28;20427;-63
2024/03/17 13:25:27;;;;;;;56.42;12.02;;;;;;;;;;5092963;28;20500;-64
2024/03/17 13:27:53;;;;;;;75.68;12.85;;;;;;;;;;5093227;28;20024;-64
2024/03/17 13:30:19;;;;;;;68.30;13.45;;;;;;;;;;5093211;28;20500;-65
2024/03/17 13:32:45;;;;;;;59.40;13.32;;;;;;;;;;5092534;28;20020;-64
2024/03/17 13:35:18;;;;;;;60.03;11.27;;;;;;;;;;5094095;28;20470;-65
2024/03/17 13:37:50;;;;;;;57.70;11.90;;;;;;;;;;5093125;28;20031;-64
2024/03/17 13:40:19;;;;;;;56.53;11.27;;;;;;;;;;5092888;28;20028;-63
2024/03/17 13:42:49;;;;;;;52.13;10.77;;;;;;;;;;5092549;28;20034;-64
2024/03/17 13:45:15;;;;;;;57.40;11.07;;;;;;;;;;5110834;28;20051;-63
2024/03/17 13:47:40;;;;;;;62.30;11.85;;;;;;;;;;5113612;28;20059;-65
2024/03/17 13:50:10;;;;;;;61.55;11.57;;;;;;;;;;5112958;28;20024;-63
2024/03/17 13:52:45;;;;;;;51.33;10.73;;;;;;;;;;5107290;28;20062;-64
2024/03/17 13:55:14;;;;;;;56.83;10.68;;;;;;;;;;5092509;28;20031;-63
2024/03/17 13:57:40;;;;;;;40.63;10.25;;;;;;;;;;5093299;28;20036;-63
2024/03/17 14:00:07;;;;;;;55.58;11.00;;;;;;;;;;5092090;28;20088;-64
2024/03/17 14:02:33;;;;;;;49.53;10.43;;;;;;;;;;5092377;28;20050;-65
2024/03/17 14:04:58;;;;;;;46.85;10.38;;;;;;;;;;5092311;28;20028;-64
2024/03/17 14:07:24;;;;;;;44.92;10.55;;;;;;;;;;5106121;28;20350;-64
2024/03/17 14:09:49;;;;;;;38.83;10.50;;;;;;;;;;5110186;28;20446;-64
2024/03/17 14:12:14;;;;;;;44.90;9.95;;;;;;;;;;5112869;28;20429;-66
2024/03/17 14:14:40;;;;;;;47.00;10.20;;;;;;;;;;5112848;28;20024;-64
2024/03/17 14:17:06;;;;;;;48.75;11.82;;;;;;;;;;5112649;28;20019;-64
2024/03/17 14:19:32;;;;;;;42.65;11.13;;;;;;;;;;5112444;28;20042;-66
2024/03/17 14:21:57;;;;;;;36.45;10.43;;;;;;;;;;5112676;28;20019;-65